sensor_id;sensor_type;location;lat;lon;timestamp;pressure;altitude;pressure_sealevel;temperature;humidity
18813;BME280;9534;51.140;6.296;2023-07-09T00:02:55;102295.44;;;22.46;100.00
18813;BME280;9534;51.140;6.296;2023-07-09T00:07:00;102357.56;;;22.30;100.00
18813;BME280;9534;51.140;6.296;2023-07-09T00:11:05;102387.44;;;22.18;100.00
18813;BME280;9534;51.140;6.296;2023-07-09T00:15:09;102403.19;;;22.01;100.00
18813;BME280;9534;51.140;6.296;2023-07-09T00:19:15;102420.16;;;21.88;100.00
18813;BME280;9534;51.140;6.296;2023-07-09T00:23:18;102414.69;;;21.70;100.00
18813;BME280;9534;51.140;6.296;2023-07-09T00:27:23;102395.19;;;21.70;100.00
18813;BME280;9534;51.140;6.296;2023-07-09T00:31:27;102357.56;;;21.61;100.00
18813;BME280;9534;51.140;6.296;2023-07-09T00:35:31;102340.13;;;21.54;100.00
18813;BME280;9534;51.140;6.296;2023-07-09T00:43:38;102280.00;;;21.35;100.00
18813;BME280;9534;51.140;6.296;2023-07-09T00:47:43;102275.66;;;21.39;100.00
18813;BME280;9534;51.140;6.296;2023-07-09T00:51:48;102276.63;;;21.56;100.00
18813;BME280;9534;51.140;6.296;2023-07-09T00:55:52;102268.63;;;21.48;100.00
18813;BME280;9534;51.140;6.296;2023-07-09T00:59:59;102258.47;;;21.19;100.00
18813;BME280;9534;51.140;6.296;2023-07-09T01:04:04;102252.28;;;21.18;100.00
18813;BME280;9534;51.140;6.296;2023-07-09T01:08:08;102252.38;;;21.11;100.00
18813;BME280;9534;51.140;6.296;2023-07-09T01:12:14;102218.72;;;21.01;100.00
18813;BME280;9534;51.140;6.296;2023-07-09T01:16:17;102206.88;;;21.06;100.00
18813;BME280;9534;51.140;6.296;2023-07-09T01:20:22;102208.69;;;21.23;100.00
18813;BME280;9534;51.140;6.296;2023-07-09T01:28:48;102214.84;;;21.25;100.00
18813;BME280;9534;51.140;6.296;2023-07-09T01:32:55;102213.03;;;21.19;100.00
18813;BME280;9534;51.140;6.296;2023-07-09T01:36:58;102218.63;;;21.19;100.00
18813;BME280;9534;51.140;6.296;2023-07-09T01:41:02;102206.00;;;21.05;100.00
18813;BME280;9534;51.140;6.296;2023-07-09T01:45:07;102217.66;;;21.14;100.00
18813;BME280;9534;51.140;6.296;2023-07-09T01:49:11;102209.78;;;21.11;100.00
18813;BME280;9534;51.140;6.296;2023-07-09T01:53:17;102215.59;;;21.20;100.00
18813;BME280;9534;51.140;6.296;2023-07-09T01:57:21;102211.81;;;21.15;100.00
18813;BME280;9534;51.140;6.296;2023-07-09T02:01:26;102220.44;;;21.14;100.00
18813;BME280;9534;51.140;6.296;2023-07-09T02:05:30;102215.09;;;21.01;100.00
18813;BME280;9534;51.140;6.296;2023-07-09T02:09:34;102207.09;;;20.93;100.00
18813;BME280;9534;51.140;6.296;2023-07-09T02:13:37;102194.25;;;20.92;100.00
18813;BME280;9534;51.140;6.296;2023-07-09T02:17:41;102203.69;;;20.91;100.00
18813;BME280;9534;51.140;6.296;2023-07-09T02:21:45;102209.88;;;20.93;100.00
18813;BME280;9534;51.140;6.296;2023-07-09T02:25:48;102202.44;;;20.87;100.00
18813;BME280;9534;51.140;6.296;2023-07-09T02:29:51;102197.84;;;20.81;100.00
18813;BME280;9534;51.140;6.296;2023-07-09T02:33:55;102192.56;;;20.91;100.00
18813;BME280;9534;51.140;6.296;2023-07-09T02:37:59;102197.38;;;20.84;100.00
18813;BME280;9534;51.140;6.296;2023-07-09T02:42:02;102185.97;;;20.74;100.00
18813;BME280;9534;51.140;6.296;2023-07-09T02:46:05;102184.41;;;20.66;100.00
18813;BME280;9534;51.140;6.296;2023-07-09T02:50:09;102156.31;;;20.56;100.00
18813;BME280;9534;51.140;6.296;2023-07-09T02:54:13;102163.44;;;20.52;100.00
18813;BME280;9534;51.140;6.296;2023-07-09T02:58:16;102160.16;;;20.44;100.00
18813;BME280;9534;51.140;6.296;2023-07-09T03:02:18;102159.31;;;20.55;100.00
18813;BME280;9534;51.140;6.296;2023-07-09T03:06:23;102171.19;;;20.62;100.00
18813;BME280;9534;51.140;6.296;2023-07-09T03:10:28;102166.22;;;20.52;100.00
18813;BME280;9534;51.140;6.296;2023-07-09T03:14:31;102168.84;;;20.36;100.00
18813;BME280;9534;51.140;6.296;2023-07-09T03:18:35;102167.38;;;20.33;100.00
18813;BME280;9534;51.140;6.296;2023-07-09T03:22:40;102158.66;;;20.30;100.00
18813;BME280;9534;51.140;6.296;2023-07-09T03:26:43;102164.44;;;20.28;100.00
18813;BME280;9534;51.140;6.296;2023-07-09T03:30:46;102166.25;;;20.23;100.00
18813;BME280;9534;51.140;6.296;2023-07-09T03:34:50;102162.09;;;20.14;100.00
18813;BME280;9534;51.140;6.296;2023-07-09T03:38:56;102165.03;;;20.19;100.00
18813;BME280;9534;51.140;6.296;2023-07-09T03:42:58;102163.00;;;20.26;100.00
18813;BME280;9534;51.140;6.296;2023-07-09T03:47:02;102160.78;;;20.16;100.00
18813;BME280;9534;51.140;6.296;2023-07-09T03:51:05;102173.50;;;20.24;100.00
18813;BME280;9534;51.140;6.296;2023-07-09T03:55:09;102158.13;;;20.21;100.00
18813;BME280;9534;51.140;6.296;2023-07-09T03:59:12;102158.81;;;20.35;100.00
18813;BME280;9534;51.140;6.296;2023-07-09T04:03:15;102164.16;;;20.48;100.00
18813;BME280;9534;51.140;6.296;2023-07-09T04:07:18;102164.41;;;20.58;100.00
18813;BME280;9534;51.140;6.296;2023-07-09T04:11:23;102162.97;;;20.67;100.00
18813;BME280;9534;51.140;6.296;2023-07-09T04:15:26;102168.06;;;20.70;100.00
18813;BME280;9534;51.140;6.296;2023-07-09T04:19:29;102171.34;;;20.90;100.00
18813;BME280;9534;51.140;6.296;2023-07-09T04:23:32;102176.00;;;20.96;100.00
18813;BME280;9534;51.140;6.296;2023-07-09T04:27:36;102169.81;;;20.94;100.00
18813;BME280;9534;51.140;6.296;2023-07-09T04:31:40;102173.44;;;20.94;100.00
18813;BME280;9534;51.140;6.296;2023-07-09T04:35:43;102173.56;;;20.99;100.00
18813;BME280;9534;51.140;6.296;2023-07-09T04:39:46;102172.38;;;21.07;100.00
18813;BME280;9534;51.140;6.296;2023-07-09T04:43:51;102175.88;;;21.14;100.00
18813;BME280;9534;51.140;6.296;2023-07-09T04:47:54;102182.66;;;21.18;100.00
18813;BME280;9534;51.140;6.296;2023-07-09T04:51:57;102177.44;;;21.21;100.00
18813;BME280;9534;51.140;6.296;2023-07-09T04:56:00;102176.97;;;21.24;100.00
18813;BME280;9534;51.140;6.296;2023-07-09T05:00:07;102184.94;;;21.32;100.00
18813;BME280;9534;51.140;6.296;2023-07-09T05:04:12;102185.28;;;21.35;100.00
18813;BME280;9534;51.140;6.296;2023-07-09T05:08:15;102185.75;;;21.55;100.00
18813;BME280;9534;51.140;6.296;2023-07-09T05:12:19;102209.41;;;21.76;100.00
18813;BME280;9534;51.140;6.296;2023-07-09T05:16:24;102217.25;;;21.90;100.00
18813;BME280;9534;51.140;6.296;2023-07-09T05:20:27;102231.13;;;22.02;100.00
18813;BME280;9534;51.140;6.296;2023-07-09T05:24:30;102254.38;;;22.19;100.00
18813;BME280;9534;51.140;6.296;2023-07-09T05:28:33;102268.28;;;22.30;100.00
18813;BME280;9534;51.140;6.296;2023-07-09T05:32:38;102286.22;;;22.46;100.00
18813;BME280;9534;51.140;6.296;2023-07-09T05:36:41;102312.50;;;22.61;100.00
18813;BME280;9534;51.140;6.296;2023-07-09T05:40:44;102335.63;;;22.73;100.00
18813;BME280;9534;51.140;6.296;2023-07-09T05:44:47;102343.44;;;22.87;100.00
18813;BME280;9534;51.140;6.296;2023-07-09T05:48:51;102359.06;;;23.00;100.00
18813;BME280;9534;51.140;6.296;2023-07-09T05:52:54;102360.31;;;23.20;100.00
18813;BME280;9534;51.140;6.296;2023-07-09T05:56:58;102376.00;;;23.10;100.00
18813;BME280;9534;51.140;6.296;2023-07-09T06:01:01;102356.44;;;23.10;100.00
18813;BME280;9534;51.140;6.296;2023-07-09T06:05:07;102370.41;;;23.38;100.00
18813;BME280;9534;51.140;6.296;2023-07-09T06:09:11;102406.59;;;23.61;100.00
18813;BME280;9534;51.140;6.296;2023-07-09T06:13:14;102426.03;;;23.83;100.00
18813;BME280;9534;51.140;6.296;2023-07-09T06:17:17;102436.28;;;23.94;100.00
18813;BME280;9534;51.140;6.296;2023-07-09T06:21:21;102446.09;;;24.13;100.00
18813;BME280;9534;51.140;6.296;2023-07-09T06:25:24;102451.66;;;24.46;100.00
18813;BME280;9534;51.140;6.296;2023-07-09T06:29:27;102432.97;;;24.68;100.00
18813;BME280;9534;51.140;6.296;2023-07-09T06:33:30;102408.13;;;24.98;100.00
18813;BME280;9534;51.140;6.296;2023-07-09T06:37:35;102359.53;;;25.14;100.00
18813;BME280;9534;51.140;6.296;2023-07-09T06:41:38;102317.78;;;25.39;100.00
18813;BME280;9534;51.140;6.296;2023-07-09T06:45:54;102203.47;;;25.51;100.00
18813;BME280;9534;51.140;6.296;2023-07-09T06:49:58;102058.50;;;25.61;100.00
18813;BME280;9534;51.140;6.296;2023-07-09T06:54:02;101948.31;;;25.86;100.00
18813;BME280;9534;51.140;6.296;2023-07-09T06:58:06;101864.72;;;26.13;100.00
18813;BME280;9534;51.140;6.296;2023-07-09T07:02:10;101827.63;;;26.31;100.00
18813;BME280;9534;51.140;6.296;2023-07-09T07:06:13;101746.72;;;26.42;100.00
18813;BME280;9534;51.140;6.296;2023-07-09T07:10:19;101643.81;;;26.66;100.00
18813;BME280;9534;51.140;6.296;2023-07-09T07:14:22;101605.75;;;26.84;100.00
18813;BME280;9534;51.140;6.296;2023-07-09T07:18:25;101538.59;;;27.11;100.00
18813;BME280;9534;51.140;6.296;2023-07-09T07:22:28;101416.66;;;27.30;100.00
18813;BME280;9534;51.140;6.296;2023-07-09T07:26:33;101279.78;;;27.44;100.00
18813;BME280;9534;51.140;6.296;2023-07-09T07:30:36;101226.63;;;27.61;100.00
18813;BME280;9534;51.140;6.296;2023-07-09T07:34:39;101187.09;;;27.84;100.00
18813;BME280;9534;51.140;6.296;2023-07-09T07:38:42;101145.00;;;28.06;100.00
18813;BME280;9534;51.140;6.296;2023-07-09T07:42:46;101123.50;;;28.24;100.00
18813;BME280;9534;51.140;6.296;2023-07-09T07:46:49;101064.91;;;28.39;100.00
18813;BME280;9534;51.140;6.296;2023-07-09T07:50:57;101048.97;;;28.57;100.00
18813;BME280;9534;51.140;6.296;2023-07-09T07:55:00;100969.84;;;28.67;100.00
18813;BME280;9534;51.140;6.296;2023-07-09T07:59:05;100982.00;;;28.98;100.00
18813;BME280;9534;51.140;6.296;2023-07-09T08:03:08;100937.25;;;29.04;100.00
18813;BME280;9534;51.140;6.296;2023-07-09T08:07:11;100929.06;;;29.33;100.00
18813;BME280;9534;51.140;6.296;2023-07-09T08:11:14;100888.84;;;29.58;100.00
18813;BME280;9534;51.140;6.296;2023-07-09T08:15:19;100860.78;;;29.87;100.00
18813;BME280;9534;51.140;6.296;2023-07-09T08:19:22;100857.84;;;30.09;100.00
18813;BME280;9534;51.140;6.296;2023-07-09T08:23:25;100842.88;;;30.17;100.00
18813;BME280;9534;51.140;6.296;2023-07-09T08:27:28;100824.53;;;30.94;100.00
18813;BME280;9534;51.140;6.296;2023-07-09T08:31:33;100806.25;;;31.21;100.00
18813;BME280;9534;51.140;6.296;2023-07-09T08:35:36;100777.88;;;32.67;100.00
18813;BME280;9534;51.140;6.296;2023-07-09T08:39:39;100767.25;;;33.12;100.00
18813;BME280;9534;51.140;6.296;2023-07-09T08:43:46;100768.69;;;32.82;100.00
18813;BME280;9534;51.140;6.296;2023-07-09T08:47:56;100767.72;;;33.26;100.00
18813;BME280;9534;51.140;6.296;2023-07-09T08:52:02;100767.66;;;33.50;99.54
18813;BME280;9534;51.140;6.296;2023-07-09T08:56:08;100755.81;;;33.60;95.61
18813;BME280;9534;51.140;6.296;2023-07-09T09:00:13;100759.78;;;33.83;91.70
18813;BME280;9534;51.140;6.296;2023-07-09T09:04:21;100741.75;;;34.64;88.27
18813;BME280;9534;51.140;6.296;2023-07-09T09:08:30;100742.69;;;35.68;79.80
18813;BME280;9534;51.140;6.296;2023-07-09T09:12:37;100739.03;;;35.18;82.21
18813;BME280;9534;51.140;6.296;2023-07-09T09:16:41;100723.41;;;34.46;81.95
18813;BME280;9534;51.140;6.296;2023-07-09T09:20:51;100725.38;;;35.42;75.70
18813;BME280;9534;51.140;6.296;2023-07-09T09:24:56;100733.84;;;35.73;73.91
18813;BME280;9534;51.140;6.296;2023-07-09T09:29:01;100725.69;;;35.37;75.22
18813;BME280;9534;51.140;6.296;2023-07-09T09:33:12;100730.50;;;35.52;73.97
18813;BME280;9534;51.140;6.296;2023-07-09T09:37:28;100719.25;;;35.40;78.46
18813;BME280;9534;51.140;6.296;2023-07-09T09:41:32;100712.72;;;35.96;77.73
18813;BME280;9534;51.140;6.296;2023-07-09T09:45:37;100714.69;;;36.34;71.80
18813;BME280;9534;51.140;6.296;2023-07-09T09:49:41;100714.19;;;36.51;68.66
18813;BME280;9534;51.140;6.296;2023-07-09T09:53:47;100708.16;;;35.92;70.62
18813;BME280;9534;51.140;6.296;2023-07-09T09:57:52;100708.97;;;37.30;66.93
18813;BME280;9534;51.140;6.296;2023-07-09T10:01:56;100705.00;;;36.87;66.31
18813;BME280;9534;51.140;6.296;2023-07-09T10:06:00;100701.31;;;37.08;62.78
18813;BME280;9534;51.140;6.296;2023-07-09T10:10:10;100708.16;;;37.92;56.35
18813;BME280;9534;51.140;6.296;2023-07-09T10:14:32;100718.78;;;37.92;57.14
18813;BME280;9534;51.140;6.296;2023-07-09T10:18:39;100712.50;;;37.20;64.64
18813;BME280;9534;51.140;6.296;2023-07-09T10:22:48;100712.44;;;36.91;61.76
18813;BME280;9534;51.140;6.296;2023-07-09T10:26:56;100721.25;;;36.83;51.34
18813;BME280;9534;51.140;6.296;2023-07-09T10:31:05;100719.28;;;37.68;50.68
18813;BME280;9534;51.140;6.296;2023-07-09T10:35:11;100716.06;;;36.21;56.53
18813;BME280;9534;51.140;6.296;2023-07-09T10:39:18;100715.06;;;37.58;51.69
18813;BME280;9534;51.140;6.296;2023-07-09T10:43:25;100704.25;;;37.45;48.00
18813;BME280;9534;51.140;6.296;2023-07-09T10:47:34;100692.56;;;37.86;46.30
18813;BME280;9534;51.140;6.296;2023-07-09T10:51:39;100696.25;;;38.23;45.27
18813;BME280;9534;51.140;6.296;2023-07-09T10:55:47;100674.88;;;37.15;49.71
18813;BME280;9534;51.140;6.296;2023-07-09T10:59:53;100679.91;;;37.87;48.33
18813;BME280;9534;51.140;6.296;2023-07-09T11:03:59;100684.78;;;38.20;48.44
18813;BME280;9534;51.140;6.296;2023-07-09T11:08:04;100676.75;;;38.32;46.09
18813;BME280;9534;51.140;6.296;2023-07-09T11:12:10;100672.63;;;37.57;49.51
18813;BME280;9534;51.140;6.296;2023-07-09T11:16:18;100667.66;;;38.23;47.73
18813;BME280;9534;51.140;6.296;2023-07-09T11:20:24;100656.66;;;36.71;53.32
18813;BME280;9534;51.140;6.296;2023-07-09T11:24:29;100648.66;;;36.80;52.46
18813;BME280;9534;51.140;6.296;2023-07-09T11:28:33;100652.59;;;36.98;53.11
18813;BME280;9534;51.140;6.296;2023-07-09T11:32:44;100654.66;;;36.49;54.33
18813;BME280;9534;51.140;6.296;2023-07-09T11:36:49;100658.34;;;37.27;51.34
18813;BME280;9534;51.140;6.296;2023-07-09T11:40:53;100662.78;;;37.25;48.63
18813;BME280;9534;51.140;6.296;2023-07-09T11:45:05;100667.16;;;36.64;50.52
18813;BME280;9534;51.140;6.296;2023-07-09T11:49:10;100670.56;;;36.05;52.05
18813;BME280;9534;51.140;6.296;2023-07-09T11:53:18;100674.69;;;35.89;52.39
18813;BME280;9534;51.140;6.296;2023-07-09T11:57:24;100686.59;;;37.06;44.49
18813;BME280;9534;51.140;6.296;2023-07-09T12:01:33;100684.44;;;36.74;45.71
18813;BME280;9534;51.140;6.296;2023-07-09T12:05:38;100681.97;;;37.24;43.50
18813;BME280;9534;51.140;6.296;2023-07-09T12:09:46;100677.69;;;37.41;43.81
18813;BME280;9534;51.140;6.296;2023-07-09T12:13:51;100681.22;;;37.93;40.15
18813;BME280;9534;51.140;6.296;2023-07-09T12:17:55;100662.13;;;37.68;41.04
18813;BME280;9534;51.140;6.296;2023-07-09T12:22:00;100662.50;;;37.99;41.19
18813;BME280;9534;51.140;6.296;2023-07-09T12:26:04;100640.16;;;37.72;44.85
18813;BME280;9534;51.140;6.296;2023-07-09T12:30:09;100639.78;;;37.44;44.86
18813;BME280;9534;51.140;6.296;2023-07-09T12:34:14;100625.34;;;36.52;48.10
18813;BME280;9534;51.140;6.296;2023-07-09T12:38:19;100629.31;;;36.44;47.41
18813;BME280;9534;51.140;6.296;2023-07-09T12:42:24;100612.38;;;35.46;53.77
18813;BME280;9534;51.140;6.296;2023-07-09T12:46:31;100596.47;;;35.07;54.22
18813;BME280;9534;51.140;6.296;2023-07-09T12:50:35;100607.63;;;34.62;60.42
18813;BME280;9534;51.140;6.296;2023-07-09T12:54:39;100612.53;;;34.00;62.63
18813;BME280;9534;51.140;6.296;2023-07-09T12:58:42;100600.63;;;33.52;67.02
18813;BME280;9534;51.140;6.296;2023-07-09T13:02:50;100607.78;;;33.46;70.78
18813;BME280;9534;51.140;6.296;2023-07-09T13:06:54;100612.72;;;33.21;72.92
18813;BME280;9534;51.140;6.296;2023-07-09T13:11:02;100595.44;;;32.99;77.92
18813;BME280;9534;51.140;6.296;2023-07-09T13:15:18;100583.00;;;33.03;77.04
18813;BME280;9534;51.140;6.296;2023-07-09T13:19:21;100636.13;;;32.67;83.64
18813;BME280;9534;51.140;6.296;2023-07-09T13:23:25;100799.16;;;28.35;100.00
18813;BME280;9534;51.140;6.296;2023-07-09T13:27:30;101483.84;;;26.46;100.00
18813;BME280;9534;51.140;6.296;2023-07-09T13:31:33;101873.41;;;25.51;100.00
18813;BME280;9534;51.140;6.296;2023-07-09T13:35:36;102448.44;;;24.38;100.00
18813;BME280;9534;51.140;6.296;2023-07-09T13:39:39;102589.44;;;23.87;100.00
18813;BME280;9534;51.140;6.296;2023-07-09T13:43:45;102550.50;;;23.70;100.00
18813;BME280;9534;51.140;6.296;2023-07-09T13:47:49;102333.03;;;23.60;100.00
18813;BME280;9534;51.140;6.296;2023-07-09T13:51:53;102305.09;;;23.44;100.00
18813;BME280;9534;51.140;6.296;2023-07-09T13:55:57;102317.41;;;23.15;100.00
18813;BME280;9534;51.140;6.296;2023-07-09T14:00:02;102398.28;;;23.05;100.00
18813;BME280;9534;51.140;6.296;2023-07-09T14:04:08;102485.34;;;23.02;100.00
18813;BME280;9534;51.140;6.296;2023-07-09T14:08:12;102469.25;;;22.81;100.00
18813;BME280;9534;51.140;6.296;2023-07-09T14:12:16;102526.44;;;22.78;100.00
18813;BME280;9534;51.140;6.296;2023-07-09T14:16:21;102510.78;;;22.66;100.00
18813;BME280;9534;51.140;6.296;2023-07-09T14:20:24;102536.03;;;22.71;100.00
18813;BME280;9534;51.140;6.296;2023-07-09T14:24:28;102620.41;;;22.73;100.00
18813;BME280;9534;51.140;6.296;2023-07-09T14:28:32;102685.19;;;22.63;100.00
18813;BME280;9534;51.140;6.296;2023-07-09T14:32:37;102671.38;;;22.28;100.00
18813;BME280;9534;51.140;6.296;2023-07-09T14:36:43;102626.22;;;21.78;100.00
18813;BME280;9534;51.140;6.296;2023-07-09T14:40:46;102602.97;;;21.84;100.00
18813;BME280;9534;51.140;6.296;2023-07-09T14:44:49;102630.41;;;21.69;100.00
18813;BME280;9534;51.140;6.296;2023-07-09T14:48:54;102608.41;;;21.61;100.00
18813;BME280;9534;51.140;6.296;2023-07-09T14:52:57;102623.28;;;21.73;100.00
18813;BME280;9534;51.140;6.296;2023-07-09T14:57:00;102636.75;;;21.40;100.00
18813;BME280;9534;51.140;6.296;2023-07-09T15:01:03;102607.84;;;21.23;100.00
18813;BME280;9534;51.140;6.296;2023-07-09T15:05:11;102626.09;;;21.19;100.00
18813;BME280;9534;51.140;6.296;2023-07-09T15:09:14;102640.19;;;21.24;100.00
18813;BME280;9534;51.140;6.296;2023-07-09T15:13:19;102630.28;;;21.28;100.00
18813;BME280;9534;51.140;6.296;2023-07-09T15:17:23;102639.94;;;21.44;100.00
18813;BME280;9534;51.140;6.296;2023-07-09T15:21:28;102635.91;;;21.58;100.00
18813;BME280;9534;51.140;6.296;2023-07-09T15:25:31;102615.31;;;21.59;100.00
18813;BME280;9534;51.140;6.296;2023-07-09T15:29:34;102599.53;;;21.71;100.00
18813;BME280;9534;51.140;6.296;2023-07-09T15:33:37;102591.94;;;21.89;100.00
18813;BME280;9534;51.140;6.296;2023-07-09T15:37:42;102592.63;;;22.14;100.00
18813;BME280;9534;51.140;6.296;2023-07-09T15:41:45;102569.38;;;22.43;100.00
18813;BME280;9534;51.140;6.296;2023-07-09T15:45:49;102543.69;;;22.87;100.00
18813;BME280;9534;51.140;6.296;2023-07-09T15:49:53;102538.00;;;23.33;100.00
18813;BME280;9534;51.140;6.296;2023-07-09T15:53:57;102488.09;;;23.53;100.00
18813;BME280;9534;51.140;6.296;2023-07-09T15:58:00;102465.78;;;24.18;100.00
18813;BME280;9534;51.140;6.296;2023-07-09T16:02:09;102424.44;;;24.80;100.00
18813;BME280;9534;51.140;6.296;2023-07-09T16:06:12;102297.16;;;24.97;100.00
18813;BME280;9534;51.140;6.296;2023-07-09T16:10:17;102236.06;;;25.25;100.00
18813;BME280;9534;51.140;6.296;2023-07-09T16:14:23;102278.34;;;25.92;100.00
18813;BME280;9534;51.140;6.296;2023-07-09T16:18:26;102265.91;;;25.83;100.00
18813;BME280;9534;51.140;6.296;2023-07-09T16:22:29;102227.47;;;25.37;100.00
18813;BME280;9534;51.140;6.296;2023-07-09T16:26:33;102211.69;;;25.26;100.00
18813;BME280;9534;51.140;6.296;2023-07-09T16:30:36;102255.66;;;26.74;100.00
18813;BME280;9534;51.140;6.296;2023-07-09T16:34:39;102243.13;;;26.21;100.00
18813;BME280;9534;51.140;6.296;2023-07-09T16:38:43;102266.53;;;25.48;100.00
18813;BME280;9534;51.140;6.296;2023-07-09T16:42:48;102317.78;;;25.39;100.00
18813;BME280;9534;51.140;6.296;2023-07-09T16:46:52;102356.94;;;25.29;100.00
18813;BME280;9534;51.140;6.296;2023-07-09T16:50:56;102342.13;;;25.12;100.00
18813;BME280;9534;51.140;6.296;2023-07-09T16:54:59;102337.69;;;24.63;100.00
18813;BME280;9534;51.140;6.296;2023-07-09T16:59:04;102348.00;;;24.84;100.00
18813;BME280;9534;51.140;6.296;2023-07-09T17:03:08;102343.06;;;24.48;100.00
18813;BME280;9534;51.140;6.296;2023-07-09T17:07:13;102339.53;;;24.79;100.00
18813;BME280;9534;51.140;6.296;2023-07-09T17:11:16;102328.13;;;25.75;100.00
18813;BME280;9534;51.140;6.296;2023-07-09T17:15:22;102296.00;;;26.38;100.00
18813;BME280;9534;51.140;6.296;2023-07-09T17:19:25;102294.75;;;26.91;100.00
18813;BME280;9534;51.140;6.296;2023-07-09T17:23:29;102275.38;;;26.89;100.00
18813;BME280;9534;51.140;6.296;2023-07-09T17:27:33;102278.19;;;26.99;100.00
18813;BME280;9534;51.140;6.296;2023-07-09T17:31:37;102269.03;;;26.37;100.00
18813;BME280;9534;51.140;6.296;2023-07-09T17:35:41;102275.34;;;25.67;100.00
18813;BME280;9534;51.140;6.296;2023-07-09T17:39:44;102293.81;;;25.58;100.00
18813;BME280;9534;51.140;6.296;2023-07-09T17:43:47;102301.16;;;25.06;100.00
18813;BME280;9534;51.140;6.296;2023-07-09T17:47:52;102300.47;;;24.94;100.00
18813;BME280;9534;51.140;6.296;2023-07-09T17:51:55;102301.94;;;24.75;100.00
18813;BME280;9534;51.140;6.296;2023-07-09T17:55:59;102300.47;;;24.68;100.00
18813;BME280;9534;51.140;6.296;2023-07-09T18:00:03;102291.25;;;24.67;100.00
18813;BME280;9534;51.140;6.296;2023-07-09T18:04:15;102285.16;;;24.75;100.00
18813;BME280;9534;51.140;6.296;2023-07-09T18:08:31;102253.63;;;24.85;100.00
18813;BME280;9534;51.140;6.296;2023-07-09T18:12:34;102239.09;;;24.61;100.00
18813;BME280;9534;51.140;6.296;2023-07-09T18:16:37;102234.41;;;24.45;100.00
18813;BME280;9534;51.140;6.296;2023-07-09T18:20:43;102240.69;;;24.57;100.00
18813;BME280;9534;51.140;6.296;2023-07-09T18:24:46;102238.16;;;24.82;100.00
18813;BME280;9534;51.140;6.296;2023-07-09T18:28:49;102203.66;;;24.77;100.00
18813;BME280;9534;51.140;6.296;2023-07-09T18:32:53;102198.63;;;24.52;100.00
18813;BME280;9534;51.140;6.296;2023-07-09T18:37:02;102208.81;;;24.58;100.00
18813;BME280;9534;51.140;6.296;2023-07-09T18:41:07;102200.22;;;24.43;100.00
18813;BME280;9534;51.140;6.296;2023-07-09T18:45:15;102206.75;;;24.54;100.00
18813;BME280;9534;51.140;6.296;2023-07-09T18:49:19;102193.97;;;24.36;100.00
18813;BME280;9534;51.140;6.296;2023-07-09T18:53:23;102208.72;;;24.05;100.00
18813;BME280;9534;51.140;6.296;2023-07-09T18:57:29;102225.25;;;24.07;100.00
18813;BME280;9534;51.140;6.296;2023-07-09T19:01:32;102211.59;;;23.89;100.00
18813;BME280;9534;51.140;6.296;2023-07-09T19:05:35;102212.81;;;23.76;100.00
18813;BME280;9534;51.140;6.296;2023-07-09T19:09:39;102227.47;;;23.67;100.00
18813;BME280;9534;51.140;6.296;2023-07-09T19:13:42;102246.88;;;23.57;100.00
18813;BME280;9534;51.140;6.296;2023-07-09T19:17:45;102259.88;;;23.47;100.00
18813;BME280;9534;51.140;6.296;2023-07-09T19:21:51;102267.59;;;23.40;100.00
18813;BME280;9534;51.140;6.296;2023-07-09T19:25:58;102278.69;;;23.35;100.00
18813;BME280;9534;51.140;6.296;2023-07-09T19:30:01;102297.16;;;23.36;100.00
18813;BME280;9534;51.140;6.296;2023-07-09T19:34:04;102318.59;;;23.30;100.00
18813;BME280;9534;51.140;6.296;2023-07-09T19:38:08;102325.69;;;22.93;100.00
18813;BME280;9534;51.140;6.296;2023-07-09T19:42:13;102368.03;;;23.02;100.00
18813;BME280;9534;51.140;6.296;2023-07-09T19:46:17;102384.63;;;22.80;100.00
18813;BME280;9534;51.140;6.296;2023-07-09T19:50:22;102402.34;;;22.86;100.00
18813;BME280;9534;51.140;6.296;2023-07-09T19:54:26;102417.91;;;22.82;100.00
18813;BME280;9534;51.140;6.296;2023-07-09T19:58:30;102447.16;;;22.79;100.00
18813;BME280;9534;51.140;6.296;2023-07-09T20:02:33;102445.13;;;22.75;100.00
18813;BME280;9534;51.140;6.296;2023-07-09T20:06:37;102460.66;;;22.71;100.00
18813;BME280;9534;51.140;6.296;2023-07-09T20:10:40;102454.25;;;22.59;100.00
18813;BME280;9534;51.140;6.296;2023-07-09T20:14:46;102476.19;;;22.44;100.00
18813;BME280;9534;51.140;6.296;2023-07-09T20:18:49;102491.72;;;22.40;100.00
18813;BME280;9534;51.140;6.296;2023-07-09T20:22:52;102493.41;;;22.41;100.00
18813;BME280;9534;51.140;6.296;2023-07-09T20:26:55;102510.66;;;22.38;100.00
18813;BME280;9534;51.140;6.296;2023-07-09T20:31:00;102527.53;;;22.32;100.00
18813;BME280;9534;51.140;6.296;2023-07-09T20:35:05;102540.59;;;22.20;100.00
18813;BME280;9534;51.140;6.296;2023-07-09T20:39:15;102556.50;;;22.19;100.00
18813;BME280;9534;51.140;6.296;2023-07-09T20:43:19;102582.44;;;22.20;100.00
18813;BME280;9534;51.140;6.296;2023-07-09T20:47:24;102609.63;;;22.24;100.00
18813;BME280;9534;51.140;6.296;2023-07-09T20:51:27;102639.22;;;22.25;100.00
18813;BME280;9534;51.140;6.296;2023-07-09T20:55:30;102663.25;;;22.26;100.00
18813;BME280;9534;51.140;6.296;2023-07-09T20:59:34;102675.25;;;22.27;100.00
18813;BME280;9534;51.140;6.296;2023-07-09T21:03:38;102713.47;;;22.26;100.00
18813;BME280;9534;51.140;6.296;2023-07-09T21:07:42;102736.25;;;22.23;100.00
18813;BME280;9534;51.140;6.296;2023-07-09T21:11:46;102751.41;;;22.16;100.00
18813;BME280;9534;51.140;6.296;2023-07-09T21:15:51;102749.47;;;22.16;100.00
18813;BME280;9534;51.140;6.296;2023-07-09T21:19:55;102722.41;;;22.17;100.00
18813;BME280;9534;51.140;6.296;2023-07-09T21:23:58;102704.28;;;22.08;100.00
18813;BME280;9534;51.140;6.296;2023-07-09T21:28:02;102691.41;;;21.95;100.00
18813;BME280;9534;51.140;6.296;2023-07-09T21:32:06;102685.06;;;21.88;100.00